Time;durP1;ratioP1;P1;durP2;ratioP2;P2;SDS_P1;SDS_P2;PMS_P1;PMS_P2;Temp;Humidity;BMP_temperature;BMP_pressure;BME280_temperature;BME280_humidity;BME280_pressure;Samples;Min_cycle;Max_cycle;Signal;HPM_P1;HPM_P2
2022/12/31 00:01:40;;;;;;;2.40;1.60;;;9.40;99.90;;;;;;5024265;28;20201;-73
2022/12/31 00:04:06;;;;;;;2.83;1.50;;;9.30;99.90;;;;;;5029622;28;20209;-73
2022/12/31 00:06:34;;;;;;;1.93;1.10;;;9.30;99.90;;;;;;5026467;28;20211;-72
2022/12/31 00:09:01;;;;;;;1.70;1.40;;;9.30;99.90;;;;;;5032584;28;20264;-73
2022/12/31 00:11:28;;;;;;;2.20;1.70;;;9.30;99.90;;;;;;5030411;28;20805;-73
2022/12/31 00:13:55;;;;;;;2.47;1.30;;;9.30;99.90;;;;;;5010337;28;20217;-72
2022/12/31 00:16:21;;;;;;;2.03;1.50;;;9.30;99.90;;;;;;5023210;28;20204;-73
2022/12/31 00:18:53;;;;;;;1.93;1.33;;;9.30;99.90;;;;;;5031161;28;20200;-73
2022/12/31 00:21:20;;;;;;;2.43;1.63;;;9.30;99.90;;;;;;5027096;28;20164;-74
2022/12/31 00:23:45;;;;;;;1.30;1.13;;;9.30;99.90;;;;;;5030798;28;20677;-73
2022/12/31 00:26:16;;;;;;;2.70;1.40;;;9.30;99.90;;;;;;5007557;28;20206;-73
2022/12/31 00:28:43;;;;;;;1.60;1.30;;;9.30;99.90;;;;;;5024576;28;20227;-73
2022/12/31 00:31:15;;;;;;;3.47;1.93;;;9.40;99.90;;;;;;5027338;28;20721;-75
2022/12/31 00:33:42;;;;;;;3.27;2.20;;;9.40;99.90;;;;;;5028665;28;20212;-73
2022/12/31 00:36:09;;;;;;;4.57;1.90;;;9.40;99.90;;;;;;5028428;28;20195;-74
2022/12/31 00:38:36;;;;;;;2.30;1.83;;;9.40;99.90;;;;;;5025589;28;20192;-74
2022/12/31 00:41:02;;;;;;;2.20;1.63;;;9.40;99.90;;;;;;5025351;28;20196;-73
2022/12/31 00:43:28;;;;;;;2.27;1.23;;;9.40;99.90;;;;;;5029843;28;20635;-74
2022/12/31 00:45:54;;;;;;;1.47;1.10;;;9.40;99.90;;;;;;5017892;28;20228;-73
2022/12/31 00:48:19;;;;;;;1.53;1.27;;;9.40;99.90;;;;;;5009694;28;20643;-73
2022/12/31 00:50:46;;;;;;;2.13;1.20;;;9.40;99.90;;;;;;5027601;28;20192;-74
2022/12/31 00:53:11;;;;;;;1.73;1.40;;;9.40;99.90;;;;;;5024716;28;20208;-74
2022/12/31 00:55:37;;;;;;;1.67;0.90;;;9.40;99.90;;;;;;5027692;28;20674;-74
2022/12/31 00:58:03;;;;;;;1.63;1.10;;;9.40;99.90;;;;;;5021580;28;20202;-74
2022/12/31 01:00:28;;;;;;;2.30;1.10;;;9.40;99.90;;;;;;5004198;28;20217;-73
2022/12/31 01:02:54;;;;;;;2.03;1.00;;;9.40;99.90;;;;;;5008105;28;20195;-74
2022/12/31 01:05:20;;;;;;;1.03;0.83;;;9.40;99.90;;;;;;5011068;28;20564;-74
2022/12/31 01:07:45;;;;;;;0.90;0.70;;;9.40;99.90;;;;;;5001773;28;20281;-74
2022/12/31 01:10:11;;;;;;;0.97;0.70;;;9.40;99.90;;;;;;5002841;28;20217;-73
2022/12/31 01:12:36;;;;;;;1.07;0.80;;;9.50;99.90;;;;;;5013556;28;20220;-74
2022/12/31 01:15:02;;;;;;;1.13;0.70;;;9.50;99.90;;;;;;5025662;28;20165;-74
2022/12/31 01:17:28;;;;;;;1.00;0.87;;;9.50;99.90;;;;;;5029078;28;20290;-73
2022/12/31 01:19:54;;;;;;;0.83;0.73;;;9.60;99.90;;;;;;5017298;28;20201;-72
2022/12/31 01:22:19;;;;;;;0.50;0.50;;;9.60;99.90;;;;;;5020542;28;20600;-74
2022/12/31 01:24:45;;;;;;;1.23;0.50;;;9.70;99.90;;;;;;5027111;28;20207;-74
2022/12/31 01:27:10;;;;;;;0.70;0.67;;;9.70;99.90;;;;;;5030234;28;20275;-73
2022/12/31 01:29:36;;;;;;;1.23;0.80;;;9.70;99.90;;;;;;5026594;28;20173;-72
2022/12/31 01:32:02;;;;;;;1.03;0.53;;;9.80;99.90;;;;;;5027310;28;20599;-73
2022/12/31 01:34:27;;;;;;;4.13;2.30;;;9.80;99.90;;;;;;5012523;28;20295;-74
2022/12/31 01:36:53;;;;;;;1.17;1.00;;;9.80;99.90;;;;;;5012291;28;20196;-73
2022/12/31 01:39:18;;;;;;;1.10;0.80;;;9.90;99.90;;;;;;5025672;28;20168;-72
2022/12/31 01:41:46;;;;;;;1.13;0.80;;;9.90;99.90;;;;;;5025409;28;20165;-73
2022/12/31 01:44:11;;;;;;;1.10;0.80;;;9.90;99.90;;;;;;5029295;28;20271;-73
2022/12/31 01:46:40;;;;;;;1.47;0.60;;;9.90;99.90;;;;;;5027718;28;20204;-73
2022/12/31 01:49:11;;;;;;;2.37;1.03;;;9.90;99.90;;;;;;5025006;28;20298;-74
2022/12/31 01:51:40;;;;;;;1.00;0.60;;;9.90;99.90;;;;;;5028702;28;20224;-73
2022/12/31 01:54:09;;;;;;;1.53;0.90;;;10.00;99.90;;;;;;5023314;28;20183;-74
2022/12/31 01:56:36;;;;;;;0.70;0.50;;;10.00;99.90;;;;;;5006932;28;20205;-74
2022/12/31 01:59:05;;;;;;;2.47;1.50;;;10.10;99.90;;;;;;5006326;28;20205;-74
2022/12/31 02:01:32;;;;;;;2.10;1.33;;;10.10;99.90;;;;;;5007836;28;20207;-74
2022/12/31 02:04:00;;;;;;;5.07;1.90;;;10.10;99.90;;;;;;5014752;28;20620;-73
2022/12/31 02:06:41;;;;;;;3.87;2.40;;;10.20;99.90;;;;;;5029779;28;20180;-73
2022/12/31 02:09:07;;;;;;;1.10;1.00;;;10.20;99.90;;;;;;5023943;28;20593;-72
2022/12/31 02:11:36;;;;;;;2.83;1.93;;;10.30;99.90;;;;;;5027487;28;20683;-73
2022/12/31 02:14:25;;;;;;;1.73;0.83;;;10.40;99.90;;;;;;5028977;23;20315;-72
2022/12/31 02:17:02;;;;;;;0.80;0.50;;;10.40;99.90;;;;;;5032758;28;20200;-73
2022/12/31 02:19:38;;;;;;;1.23;0.80;;;10.40;99.90;;;;;;5030627;28;20210;-72
2022/12/31 02:22:04;;;;;;;3.03;0.70;;;10.50;99.90;;;;;;5028755;28;20222;-73
2022/12/31 02:25:00;;;;;;;1.03;0.90;;;10.50;99.90;;;;;;5015831;28;20679;-73
2022/12/31 02:27:59;;;;;;;3.03;1.90;;;10.50;99.90;;;;;;5003445;28;20264;-73
2022/12/31 02:30:29;;;;;;;2.87;2.10;;;10.50;99.90;;;;;;5005403;28;20201;-73
2022/12/31 02:33:07;;;;;;;1.07;0.87;;;10.50;99.90;;;;;;5004176;28;20628;-74
2022/12/31 02:35:38;;;;;;;3.17;1.83;;;10.50;99.90;;;;;;5018505;28;20291;-73
2022/12/31 02:38:09;;;;;;;1.67;0.90;;;10.50;99.90;;;;;;5003221;28;20570;-73
2022/12/31 02:40:37;;;;;;;1.63;1.10;;;10.40;99.90;;;;;;4997509;28;20209;-73
2022/12/31 02:43:03;;;;;;;2.93;1.70;;;10.50;99.90;;;;;;4998510;28;20212;-73
2022/12/31 02:45:34;;;;;;;1.90;0.70;;;10.50;99.90;;;;;;5003464;28;20240;-72
2022/12/31 02:48:07;;;;;;;1.03;0.50;;;10.50;99.90;;;;;;5003049;28;20160;-73
2022/12/31 02:50:56;;;;;;;1.93;0.70;;;10.60;99.90;;;;;;4998528;28;20201;-73
2022/12/31 02:53:54;;;;;;;1.57;0.90;;;10.60;99.90;;;;;;4997179;28;20579;-72
2022/12/31 02:56:36;;;;;;;1.70;0.80;;;10.70;99.90;;;;;;4972047;28;20205;-72
2022/12/31 03:02:14;;;;;;;1.67;0.70;;;10.60;99.90;;;;;;5003907;28;20208;-71
2022/12/31 03:05:08;;;;;;;0.60;0.50;;;10.70;99.90;;;;;;5001683;28;20256;-73
2022/12/31 03:07:33;;;;;;;1.20;0.63;;;10.70;99.90;;;;;;4997211;28;20239;-73
2022/12/31 03:10:00;;;;;;;1.17;0.37;;;10.70;99.90;;;;;;4997450;28;20240;-73
2022/12/31 03:12:47;;;;;;;2.40;0.40;;;10.70;99.90;;;;;;5001006;28;20207;-73
2022/12/31 03:15:23;;;;;;;0.83;0.40;;;10.60;99.90;;;;;;5000351;28;20688;-71
2022/12/31 03:17:56;;;;;;;0.50;0.50;;;10.70;99.90;;;;;;4998955;28;20169;-72
2022/12/31 03:23:12;;;;;;;0.40;0.40;;;10.70;99.90;;;;;;5002166;28;20215;-73
2022/12/31 03:25:38;;;;;;;0.37;0.30;;;10.70;99.90;;;;;;5004372;28;20597;-73
2022/12/31 03:28:10;;;;;;;0.40;0.40;;;10.70;99.90;;;;;;5001611;28;20425;-73
2022/12/31 03:30:38;;;;;;;1.43;0.50;;;10.70;99.90;;;;;;4996652;28;20216;-73
2022/12/31 03:33:05;;;;;;;1.53;0.43;;;10.70;99.90;;;;;;4998874;28;20209;-73
2022/12/31 03:35:33;;;;;;;0.30;0.30;;;10.60;99.90;;;;;;5001290;28;20201;-73
2022/12/31 03:37:59;;;;;;;0.63;0.50;;;10.70;99.90;;;;;;4993716;28;20200;-73
2022/12/31 03:40:28;;;;;;;1.00;0.40;;;10.70;99.90;;;;;;5004618;28;20279;-73
2022/12/31 03:42:53;;;;;;;0.73;0.40;;;10.70;99.90;;;;;;5015859;28;20210;-72
2022/12/31 03:45:19;;;;;;;0.73;0.50;;;10.70;99.90;;;;;;5010949;28;20239;-73
2022/12/31 03:47:45;;;;;;;0.53;0.50;;;10.70;99.90;;;;;;5026543;28;20226;-73
2022/12/31 03:50:13;;;;;;;0.60;0.50;;;10.70;99.90;;;;;;5027978;28;20740;-73
2022/12/31 03:52:39;;;;;;;0.33;0.33;;;10.70;99.90;;;;;;5014592;28;20193;-73
2022/12/31 03:55:05;;;;;;;0.97;0.43;;;10.70;99.90;;;;;;5012990;28;20219;-73
2022/12/31 03:57:31;;;;;;;0.87;0.73;;;10.70;99.90;;;;;;5025201;28;20201;-73
2022/12/31 03:59:56;;;;;;;0.50;0.47;;;10.70;99.90;;;;;;5007438;28;20193;-73
2022/12/31 04:02:24;;;;;;;1.43;0.60;;;10.70;99.90;;;;;;5022422;28;20303;-73
2022/12/31 04:04:49;;;;;;;0.90;0.50;;;10.70;99.90;;;;;;5007837;28;20221;-73
2022/12/31 04:07:15;;;;;;;0.37;0.37;;;10.70;99.90;;;;;;5015827;28;20722;-73
2022/12/31 04:09:41;;;;;;;0.40;0.40;;;10.60;99.90;;;;;;5021292;28;20287;-73
2022/12/31 04:12:07;;;;;;;2.57;1.73;;;10.70;99.90;;;;;;5009654;28;20224;-72
2022/12/31 04:14:32;;;;;;;0.67;0.57;;;10.70;99.90;;;;;;5029062;28;20213;-71
2022/12/31 04:16:58;;;;;;;1.37;0.53;;;10.70;99.90;;;;;;5021418;28;20197;-73
2022/12/31 04:19:24;;;;;;;0.80;0.50;;;10.80;99.90;;;;;;5013726;28;20197;-73
2022/12/31 04:21:50;;;;;;;0.33;0.33;;;10.70;99.90;;;;;;5013163;28;20566;-73
2022/12/31 04:24:15;;;;;;;0.57;0.53;;;10.70;99.90;;;;;;5026481;28;20195;-72
2022/12/31 04:26:42;;;;;;;0.63;0.50;;;10.70;99.90;;;;;;5011053;28;20216;-73
2022/12/31 04:29:08;;;;;;;1.40;0.87;;;10.80;99.90;;;;;;5020819;28;20695;-71
2022/12/31 04:31:34;;;;;;;0.70;0.40;;;10.80;99.90;;;;;;5015823;28;20300;-73
2022/12/31 04:34:00;;;;;;;0.50;0.50;;;10.90;99.90;;;;;;5013510;28;20304;-73
2022/12/31 04:36:26;;;;;;;0.70;0.40;;;10.90;99.90;;;;;;5022512;28;20698;-73
2022/12/31 04:38:52;;;;;;;0.53;0.50;;;10.90;99.90;;;;;;5009437;28;20177;-73
2022/12/31 04:41:18;;;;;;;0.80;0.80;;;10.90;99.90;;;;;;5004520;28;20205;-74
2022/12/31 04:43:46;;;;;;;0.50;0.43;;;10.90;99.90;;;;;;5017340;28;20565;-73
2022/12/31 04:46:13;;;;;;;0.93;0.50;;;10.90;99.90;;;;;;5017812;28;20710;-73
2022/12/31 04:48:38;;;;;;;0.40;0.40;;;11.00;99.90;;;;;;5025500;28;20204;-73
2022/12/31 04:51:04;;;;;;;0.60;0.40;;;11.00;99.90;;;;;;5023560;28;20204;-73
2022/12/31 04:53:31;;;;;;;0.67;0.60;;;11.00;99.90;;;;;;5008052;28;20197;-73
2022/12/31 04:55:56;;;;;;;0.40;0.40;;;11.00;99.90;;;;;;5017391;28;20691;-73
2022/12/31 04:58:22;;;;;;;0.67;0.47;;;11.10;99.90;;;;;;5017253;28;20241;-73
2022/12/31 05:00:50;;;;;;;0.35;0.30;;;11.10;99.90;;;;;;5013002;28;20402;-73
2022/12/31 05:03:20;;;;;;;0.43;0.40;;;11.10;99.90;;;;;;5023708;28;20192;-73
2022/12/31 05:05:46;;;;;;;0.37;0.30;;;11.10;99.90;;;;;;5007054;28;20170;-72
2022/12/31 05:08:12;;;;;;;0.70;0.40;;;11.00;99.90;;;;;;5022909;28;20212;-73
2022/12/31 05:10:43;;;;;;;0.70;0.50;;;11.10;99.90;;;;;;5021237;28;20238;-72
2022/12/31 05:13:09;;;;;;;1.27;0.50;;;11.10;99.90;;;;;;5014736;28;20206;-72
2022/12/31 05:15:35;;;;;;;11.33;6.40;;;11.10;99.90;;;;;;5010297;28;20227;-73
2022/12/31 05:18:00;;;;;;;1.67;0.70;;;11.20;99.90;;;;;;5029804;28;20620;-73
2022/12/31 05:20:26;;;;;;;0.53;0.50;;;11.20;99.90;;;;;;5029486;28;20204;-73
2022/12/31 05:22:52;;;;;;;0.80;0.80;;;11.20;99.90;;;;;;5025500;28;20640;-73
2022/12/31 05:25:17;;;;;;;0.40;0.40;;;11.20;99.90;;;;;;5016730;28;20232;-73
2022/12/31 05:27:44;;;;;;;1.60;0.40;;;11.30;99.90;;;;;;5011732;28;20204;-73
2022/12/31 05:30:10;;;;;;;0.40;0.40;;;11.30;99.90;;;;;;5022122;28;20200;-73
2022/12/31 05:32:36;;;;;;;1.03;0.53;;;11.30;99.90;;;;;;5007364;28;20576;-73
2022/12/31 05:35:02;;;;;;;0.83;0.53;;;11.30;99.90;;;;;;5020102;28;20216;-73
2022/12/31 05:37:29;;;;;;;0.30;0.30;;;11.30;99.90;;;;;;5026251;28;20250;-72
2022/12/31 05:39:54;;;;;;;0.40;0.40;;;11.30;99.90;;;;;;5014915;28;20208;-72
2022/12/31 05:42:21;;;;;;;0.60;0.50;;;11.20;99.90;;;;;;5007915;28;20180;-73
2022/12/31 05:44:47;;;;;;;0.77;0.50;;;11.20;99.90;;;;;;5024280;28;20192;-73
2022/12/31 05:47:13;;;;;;;0.97;0.67;;;11.20;99.90;;;;;;5025629;28;20577;-73
2022/12/31 05:49:38;;;;;;;1.53;0.70;;;11.10;99.90;;;;;;5023347;28;20208;-73
2022/12/31 05:52:05;;;;;;;1.10;0.57;;;11.20;99.90;;;;;;5028283;28;20768;-73
2022/12/31 05:54:31;;;;;;;0.80;0.50;;;11.10;99.90;;;;;;5027526;28;20212;-73
2022/12/31 05:56:57;;;;;;;0.50;0.50;;;11.20;99.90;;;;;;5020853;28;20169;-73
2022/12/31 05:59:22;;;;;;;0.67;0.57;;;11.20;99.90;;;;;;5019077;28;20612;-72
2022/12/31 06:01:48;;;;;;;0.70;0.70;;;11.20;99.90;;;;;;5020861;28;20662;-72
2022/12/31 06:04:14;;;;;;;1.87;0.80;;;11.20;99.90;;;;;;5021613;28;20227;-72
2022/12/31 06:06:39;;;;;;;1.43;0.60;;;11.20;99.90;;;;;;5022244;28;20207;-74
2022/12/31 06:09:05;;;;;;;2.33;0.53;;;11.30;99.90;;;;;;5022042;28;20266;-74
2022/12/31 06:11:30;;;;;;;0.57;0.57;;;11.30;99.90;;;;;;5022378;28;20228;-74
2022/12/31 06:13:57;;;;;;;0.50;0.50;;;11.30;99.90;;;;;;5020681;28;20633;-74
2022/12/31 06:16:23;;;;;;;1.10;0.70;;;11.40;99.90;;;;;;5025849;28;20207;-74
2022/12/31 06:18:49;;;;;;;0.60;0.60;;;11.50;99.90;;;;;;5022750;28;20574;-74
2022/12/31 06:21:17;;;;;;;1.77;0.70;;;11.50;99.90;;;;;;5021358;28;20218;-74
2022/12/31 06:23:42;;;;;;;0.77;0.77;;;11.60;99.90;;;;;;5023618;28;20724;-75
2022/12/31 06:26:08;;;;;;;0.50;0.50;;;11.50;99.90;;;;;;5023029;28;20213;-74
2022/12/31 06:28:34;;;;;;;0.50;0.50;;;11.50;99.90;;;;;;5022370;28;20196;-72
2022/12/31 06:31:02;;;;;;;2.07;0.60;;;11.50;99.90;;;;;;5021045;28;20223;-73
2022/12/31 06:33:28;;;;;;;1.93;0.50;;;11.60;99.90;;;;;;5022994;28;20203;-74
2022/12/31 06:35:59;;;;;;;3.40;0.60;;;11.60;99.90;;;;;;5019931;28;20169;-73
2022/12/31 06:38:26;;;;;;;0.40;0.40;;;11.70;99.90;;;;;;5019222;28;20205;-73
2022/12/31 06:40:52;;;;;;;0.57;0.50;;;11.70;99.90;;;;;;5020505;28;20283;-73
2022/12/31 06:43:17;;;;;;;0.30;0.30;;;11.70;99.90;;;;;;5020673;28;20279;-73
2022/12/31 06:45:43;;;;;;;0.83;0.50;;;11.80;99.90;;;;;;5019234;28;20711;-73
2022/12/31 06:48:09;;;;;;;0.40;0.40;;;11.70;99.90;;;;;;5020713;28;20175;-72
2022/12/31 06:50:35;;;;;;;0.83;0.50;;;11.80;99.90;;;;;;5019578;28;20197;-71
2022/12/31 06:53:00;;;;;;;3.30;0.50;;;11.90;99.90;;;;;;5036995;28;20203;-73
2022/12/31 06:55:26;;;;;;;2.10;0.50;;;11.90;99.90;;;;;;5023182;28;20271;-72
2022/12/31 06:57:52;;;;;;;1.53;0.43;;;12.00;99.90;;;;;;5021722;28;20433;-73
2022/12/31 07:00:19;;;;;;;0.77;0.30;;;12.00;99.90;;;;;;5021330;28;20251;-73
2022/12/31 07:03:22;;;;;;;1.30;0.40;;;12.00;99.90;;;;;;5021272;28;20173;-73
2022/12/31 07:06:05;;;;;;;0.60;0.30;;;12.20;99.90;;;;;;5022146;28;20258;-73
2022/12/31 07:08:46;;;;;;;3.90;0.50;;;12.10;99.90;;;;;;5021193;28;20207;-73
2022/12/31 07:11:24;;;;;;;0.70;0.40;;;12.20;99.90;;;;;;5034325;28;20266;-73
2022/12/31 07:14:01;;;;;;;1.27;0.40;;;12.20;99.90;;;;;;5017836;28;20265;-72
2022/12/31 07:16:40;;;;;;;0.90;0.53;;;12.20;99.90;;;;;;5021370;28;20200;-73
2022/12/31 07:19:28;;;;;;;1.50;0.53;;;12.20;99.90;;;;;;5038176;28;20243;-73
2022/12/31 07:21:57;;;;;;;0.77;0.57;;;12.30;99.90;;;;;;5024621;28;20285;-71
2022/12/31 07:24:22;;;;;;;0.60;0.40;;;12.40;99.90;;;;;;5025258;28;20728;-73
2022/12/31 07:27:07;;;;;;;0.40;0.40;;;12.40;99.90;;;;;;5024152;28;20237;-73
2022/12/31 07:29:44;;;;;;;1.47;0.40;;;12.50;99.90;;;;;;5016506;28;20382;-72
2022/12/31 07:32:28;;;;;;;0.80;0.77;;;12.50;99.90;;;;;;5023344;28;20350;-73
2022/12/31 07:35:16;;;;;;;0.40;0.40;;;12.60;99.90;;;;;;5022309;28;20561;-72
2022/12/31 07:37:58;;;;;;;1.47;0.40;;;12.60;99.90;;;;;;5023862;28;20674;-73
2022/12/31 07:40:42;;;;;;;1.03;0.50;;;12.60;99.90;;;;;;5021876;28;20732;-73
2022/12/31 07:43:38;;;;;;;0.37;0.30;;;12.80;99.90;;;;;;5021728;28;20219;-71
2022/12/31 07:46:18;;;;;;;0.73;0.30;;;12.80;99.90;;;;;;5036812;28;20219;-73
2022/12/31 07:48:44;;;;;;;2.10;0.53;;;12.80;99.90;;;;;;5022218;28;20262;-73
2022/12/31 07:51:10;;;;;;;1.47;0.73;;;12.90;99.90;;;;;;5027068;28;20197;-73
2022/12/31 07:53:36;;;;;;;0.40;0.30;;;12.90;99.90;;;;;;5022650;28;20200;-73
2022/12/31 07:56:05;;;;;;;0.30;0.23;;;13.00;99.90;;;;;;5020577;28;20204;-72
2022/12/31 07:58:39;;;;;;;0.50;0.30;;;13.10;99.90;;;;;;5024053;28;20565;-70
2022/12/31 08:01:12;;;;;;;0.60;0.30;;;13.10;99.90;;;;;;5020369;28;20220;-73
2022/12/31 08:04:16;;;;;;;0.93;0.40;;;13.10;99.90;;;;;;5023479;28;20621;-74
2022/12/31 08:06:55;;;;;;;0.53;0.50;;;13.20;99.90;;;;;;5024659;28;20345;-72
2022/12/31 08:09:48;;;;;;;3.23;0.93;;;13.40;99.90;;;;;;5018985;28;20193;-73
2022/12/31 08:12:14;;;;;;;0.57;0.40;;;13.30;99.90;;;;;;5026263;28;20184;-73
2022/12/31 08:14:45;;;;;;;0.37;0.37;;;13.40;99.90;;;;;;5025016;28;20230;-73
2022/12/31 08:17:16;;;;;;;1.30;0.37;;;13.40;99.90;;;;;;5053320;22;20224;-73
2022/12/31 08:19:44;;;;;;;2.73;0.50;;;13.50;99.90;;;;;;5052264;28;20203;-74
2022/12/31 08:22:35;;;;;;;0.37;0.37;;;13.60;99.90;;;;;;5029478;28;20236;-73
2022/12/31 08:25:28;;;;;;;0.43;0.40;;;13.70;99.90;;;;;;5048691;28;20206;-73
2022/12/31 08:28:12;;;;;;;0.60;0.50;;;13.70;99.90;;;;;;5042857;28;20211;-73
2022/12/31 08:30:43;;;;;;;0.93;0.60;;;13.80;99.90;;;;;;5042716;28;20211;-73
2022/12/31 08:33:12;;;;;;;1.67;0.90;;;13.80;99.90;;;;;;5032172;28;20175;-72
2022/12/31 08:35:47;;;;;;;0.50;0.40;;;13.90;99.90;;;;;;5047013;28;20191;-73
2022/12/31 08:38:35;;;;;;;1.70;0.60;;;13.80;99.90;;;;;;5033717;28;20296;-74
2022/12/31 08:41:19;;;;;;;2.37;0.60;;;13.90;99.90;;;;;;5044561;28;20199;-74
2022/12/31 08:44:08;;;;;;;1.50;0.57;;;13.90;99.90;;;;;;5031399;28;20287;-74
2022/12/31 08:46:41;;;;;;;2.53;0.43;;;13.90;99.90;;;;;;5045306;28;20201;-74
2022/12/31 08:49:08;;;;;;;0.50;0.47;;;13.90;99.90;;;;;;5044533;28;20204;-74
2022/12/31 08:51:34;;;;;;;0.50;0.40;;;14.00;99.90;;;;;;5028616;28;20239;-75
2022/12/31 08:54:00;;;;;;;0.70;0.63;;;14.00;99.90;;;;;;5047514;28;20191;-74
2022/12/31 08:56:33;;;;;;;0.53;0.47;;;14.20;99.90;;;;;;5048746;28;20203;-74
2022/12/31 08:59:32;;;;;;;1.80;0.50;;;14.10;99.90;;;;;;5049525;28;20195;-75
2022/12/31 09:02:01;;;;;;;1.50;0.50;;;14.20;99.90;;;;;;5042593;28;20204;-74
2022/12/31 09:04:53;;;;;;;0.65;0.50;;;14.30;99.90;;;;;;5048072;28;20207;-73
2022/12/31 09:07:25;;;;;;;0.50;0.50;;;14.30;99.90;;;;;;5043884;28;20227;-73
2022/12/31 09:09:59;;;;;;;1.30;0.50;;;14.30;99.90;;;;;;5043492;28;20211;-73
2022/12/31 09:12:40;;;;;;;0.97;0.50;;;14.30;99.90;;;;;;5045861;28;20175;-73
2022/12/31 09:15:16;;;;;;;0.75;0.60;;;14.40;99.90;;;;;;5043169;28;20194;-75
2022/12/31 09:17:47;;;;;;;0.95;0.43;;;14.40;99.90;;;;;;5045523;28;20583;-74
2022/12/31 09:20:24;;;;;;;0.63;0.60;;;14.40;99.90;;;;;;5046680;28;20274;-74
2022/12/31 09:22:51;;;;;;;1.33;0.73;;;14.50;99.90;;;;;;5045792;28;20248;-74
2022/12/31 09:25:20;;;;;;;1.50;0.60;;;14.50;99.90;;;;;;5047861;28;20199;-73
2022/12/31 09:28:07;;;;;;;0.60;0.40;;;14.50;99.90;;;;;;5045213;28;20225;-73
2022/12/31 09:30:53;;;;;;;1.07;0.60;;;14.60;99.90;;;;;;5032050;28;20254;-75
2022/12/31 09:33:35;;;;;;;2.00;1.08;;;14.70;99.90;;;;;;5031208;28;20584;-73
2022/12/31 09:36:06;;;;;;;2.55;0.40;;;14.90;99.90;;;;;;5042388;28;20187;-74
2022/12/31 09:38:55;;;;;;;2.45;1.15;;;14.90;99.90;;;;;;5048058;28;20207;-74
2022/12/31 09:42:05;;;;;;;1.88;0.80;;;14.90;99.90;;;;;;5043197;28;20678;-75
2022/12/31 09:44:46;;;;;;;3.17;2.22;;;15.00;99.90;;;;;;5041553;28;20223;-75
2022/12/31 09:47:39;;;;;;;3.20;1.40;;;15.00;99.90;;;;;;5046936;28;20208;-76
2022/12/31 09:50:23;;;;;;;2.83;1.52;;;15.10;99.90;;;;;;5042145;28;20231;-75
2022/12/31 09:53:29;;;;;;;1.23;0.85;;;15.10;99.90;;;;;;5047416;28;20196;-74
2022/12/31 09:56:04;;;;;;;0.57;0.57;;;15.20;99.90;;;;;;5041153;28;20196;-74
2022/12/31 09:58:51;;;;;;;2.58;0.70;;;15.20;99.90;;;;;;5047654;28;20677;-74
2022/12/31 10:01:44;;;;;;;1.30;0.70;;;15.30;99.90;;;;;;5045749;28;20283;-73
2022/12/31 10:04:42;;;;;;;1.48;1.08;;;15.40;99.90;;;;;;5042959;28;20238;-73
2022/12/31 10:07:17;;;;;;;0.93;0.65;;;15.40;99.90;;;;;;5046671;28;20294;-74
2022/12/31 10:10:00;;;;;;;1.08;0.73;;;15.50;99.90;;;;;;5039751;28;20206;-74
2022/12/31 10:13:00;;;;;;;1.20;0.68;;;15.40;99.90;;;;;;5047447;28;20164;-75
2022/12/31 10:15:47;;;;;;;2.95;1.05;;;15.50;99.90;;;;;;5029064;28;20172;-75
2022/12/31 10:18:34;;;;;;;0.50;0.50;;;15.50;99.90;;;;;;5043499;28;20211;-74
2022/12/31 10:21:05;;;;;;;1.20;1.00;;;15.60;99.90;;;;;;5042072;28;20175;-74
2022/12/31 10:23:58;;;;;;;2.50;0.60;;;15.60;99.90;;;;;;5039801;28;20204;-75
2022/12/31 10:26:29;;;;;;;1.52;0.50;;;15.60;99.90;;;;;;5030993;28;20207;-75
2022/12/31 10:29:22;;;;;;;4.95;2.55;;;15.60;99.90;;;;;;5043192;28;20286;-75
2022/12/31 10:32:14;;;;;;;6.53;2.58;;;15.60;99.90;;;;;;5030217;28;20257;-76
2022/12/31 10:35:12;;;;;;;1.23;0.70;;;15.60;99.90;;;;;;5041322;28;20278;-75
2022/12/31 10:38:00;;;;;;;1.38;0.70;;;15.60;99.90;;;;;;5027391;28;20669;-75
2022/12/31 10:40:48;;;;;;;0.90;0.60;;;15.50;99.90;;;;;;5046587;28;20796;-75
2022/12/31 10:43:44;;;;;;;4.35;2.53;;;15.60;99.90;;;;;;5022934;28;20219;-75
2022/12/31 10:46:09;;;;;;;2.22;1.63;;;15.60;99.90;;;;;;5045525;28;20215;-74
2022/12/31 10:49:05;;;;;;;53.08;33.90;;;15.60;99.90;;;;;;5046882;28;20208;-75
2022/12/31 10:52:04;;;;;;;6.97;3.92;;;15.50;99.90;;;;;;5030708;28;20678;-75
2022/12/31 10:55:23;;;;;;;1.75;1.08;;;15.30;99.90;;;;;;5046862;28;20689;-74
2022/12/31 10:57:58;;;;;;;2.17;0.60;;;15.20;99.90;;;;;;4998995;28;20767;-75
2022/12/31 11:00:29;;;;;;;2.47;0.98;;;15.10;99.90;;;;;;5045642;28;20308;-74
2022/12/31 11:03:45;;;;;;;1.60;0.90;;;15.00;99.90;;;;;;5043188;28;20225;-74
2022/12/31 11:06:42;;;;;;;2.13;1.13;;;15.00;99.90;;;;;;5046472;28;20547;-74
2022/12/31 11:09:20;;;;;;;3.88;0.90;;;15.00;99.90;;;;;;5024894;28;20167;-73
2022/12/31 11:12:03;;;;;;;2.15;0.95;;;14.90;99.90;;;;;;5029698;28;20227;-75
2022/12/31 11:14:32;;;;;;;1.15;0.73;;;14.90;99.90;;;;;;5041629;28;20203;-75
2022/12/31 11:17:21;;;;;;;2.72;1.00;;;14.90;99.90;;;;;;5038701;28;20240;-75
2022/12/31 11:20:01;;;;;;;2.03;1.10;;;14.90;99.90;;;;;;5044108;28;20247;-74
2022/12/31 11:23:00;;;;;;;2.45;1.20;;;14.90;99.90;;;;;;5029003;28;20238;-74
2022/12/31 11:25:35;;;;;;;2.45;1.08;;;14.90;99.90;;;;;;5041960;28;20199;-74
2022/12/31 11:28:12;;;;;;;1.70;1.02;;;14.90;99.90;;;;;;5044796;28;20215;-74
2022/12/31 11:30:59;;;;;;;1.92;0.80;;;14.80;99.90;;;;;;5042487;28;20272;-75
2022/12/31 11:33:52;;;;;;;2.22;1.20;;;14.80;99.90;;;;;;5030970;28;20178;-75
2022/12/31 11:36:30;;;;;;;2.00;1.02;;;14.90;99.90;;;;;;5042756;28;20168;-74
2022/12/31 11:39:10;;;;;;;1.92;1.02;;;14.90;99.90;;;;;;5045205;28;20938;-74
2022/12/31 11:41:48;;;;;;;2.83;1.02;;;14.90;99.90;;;;;;5046160;28;20200;-75
2022/12/31 11:44:46;;;;;;;1.88;1.42;;;15.00;99.90;;;;;;5022701;28;20239;-75
2022/12/31 11:47:46;;;;;;;3.67;0.95;;;15.00;99.90;;;;;;5044930;28;21494;-74
2022/12/31 11:50:12;;;;;;;2.42;1.10;;;15.10;99.90;;;;;;5022424;28;20614;-74
2022/12/31 11:52:56;;;;;;;1.85;1.10;;;15.20;99.90;;;;;;5046081;28;20192;-74
2022/12/31 11:55:40;;;;;;;2.42;1.45;;;15.30;99.90;;;;;;5045001;28;20255;-75
2022/12/31 11:58:14;;;;;;;2.95;1.30;;;15.40;99.90;;;;;;5043536;28;20257;-74
2022/12/31 12:00:45;;;;;;;4.07;1.00;;;15.50;99.90;;;;;;5026708;28;20211;-74
2022/12/31 12:03:11;;;;;;;1.13;0.88;;;15.60;99.90;;;;;;5042948;28;20180;-74
2022/12/31 12:05:39;;;;;;;2.15;0.80;;;15.60;99.90;;;;;;5030302;28;20176;-74
2022/12/31 12:08:05;;;;;;;1.92;0.98;;;15.70;99.90;;;;;;5032473;28;20207;-74
2022/12/31 12:10:52;;;;;;;1.77;1.05;;;15.80;99.90;;;;;;5045776;28;20204;-74
2022/12/31 12:13:22;;;;;;;1.67;1.13;;;15.90;99.90;;;;;;5047800;28;20276;-73
2022/12/31 12:15:54;;;;;;;3.50;0.80;;;16.00;99.90;;;;;;5035010;28;20265;-74
2022/12/31 12:18:45;;;;;;;1.88;0.90;;;16.10;99.90;;;;;;5044492;28;20211;-74
2022/12/31 12:21:17;;;;;;;1.83;0.70;;;16.30;99.90;;;;;;5026764;28;20641;-74
2022/12/31 12:24:00;;;;;;;1.20;0.90;;;16.40;99.90;;;;;;5024731;28;20198;-74
2022/12/31 12:26:37;;;;;;;2.05;0.90;;;16.60;99.90;;;;;;5049843;28;20282;-74
2022/12/31 12:29:15;;;;;;;1.75;0.88;;;16.60;99.90;;;;;;5047844;28;20199;-74
2022/12/31 12:31:41;;;;;;;2.33;1.35;;;16.50;99.90;;;;;;5028684;28;20328;-74
2022/12/31 12:34:24;;;;;;;2.25;0.90;;;16.60;99.90;;;;;;5030158;28;20660;-74
2022/12/31 12:36:49;;;;;;;1.27;0.77;;;16.50;99.90;;;;;;5048735;28;20211;-74
2022/12/31 12:39:29;;;;;;;1.50;1.00;;;16.60;99.90;;;;;;5044378;28;20643;-72
2022/12/31 12:42:03;;;;;;;2.67;0.90;;;16.50;99.90;;;;;;5050823;28;20191;-74
2022/12/31 12:44:29;;;;;;;1.45;0.75;;;16.60;99.90;;;;;;5046004;28;20196;-75
2022/12/31 12:46:56;;;;;;;1.08;0.93;;;16.70;99.90;;;;;;5033859;28;20283;-74
2022/12/31 12:49:41;;;;;;;6.22;1.60;;;16.80;99.90;;;;;;5029101;28;20196;-74
2022/12/31 12:52:22;;;;;;;2.42;1.08;;;16.70;99.90;;;;;;5042551;28;20237;-74
2022/12/31 12:55:06;;;;;;;3.33;1.13;;;16.60;99.90;;;;;;5032813;28;20269;-74
2022/12/31 12:57:49;;;;;;;1.38;1.17;;;16.70;99.90;;;;;;5044278;28;20210;-74
2022/12/31 13:00:23;;;;;;;3.05;1.45;;;16.70;99.90;;;;;;5044994;28;20184;-75
2022/12/31 13:03:24;;;;;;;3.55;1.52;;;16.70;99.90;;;;;;5051880;28;20167;-78
2022/12/31 13:06:11;;;;;;;2.25;0.88;;;16.70;99.90;;;;;;5042055;28;20222;-74
2022/12/31 13:09:10;;;;;;;1.85;0.80;;;16.80;99.90;;;;;;5030169;28;20257;-75
2022/12/31 13:11:58;;;;;;;1.00;0.90;;;16.80;99.90;;;;;;5044297;28;20245;-75
2022/12/31 13:14:36;;;;;;;2.28;0.93;;;16.80;99.90;;;;;;5029282;28;20291;-75
2022/12/31 13:17:19;;;;;;;2.50;1.30;;;16.80;99.90;;;;;;5024024;28;20265;-74
2022/12/31 13:19:48;;;;;;;2.10;1.45;;;16.80;99.90;;;;;;5023378;28;20585;-75
2022/12/31 13:22:36;;;;;;;2.05;0.85;;;16.80;99.90;;;;;;5028463;28;20228;-74
2022/12/31 13:25:20;;;;;;;2.95;0.93;;;16.80;99.90;;;;;;5023219;28;20226;-74
2022/12/31 13:27:49;;;;;;;4.60;1.20;;;16.90;99.90;;;;;;5026636;28;20211;-74
2022/12/31 13:30:35;;;;;;;2.30;0.65;;;16.90;99.90;;;;;;5025387;28;20536;-77